Time;durP1;ratioP1;P1;durP2;ratioP2;P2;SDS_P1;SDS_P2;PMS_P1;PMS_P2;Temp;Humidity;BMP_temperature;BMP_pressure;BME280_temperature;BME280_humidity;BME280_pressure;Samples;Min_cycle;Max_cycle;Signal;HPM_P1;HPM_P2
2023/08/27 00:02:24;;;;;;;10.88;8.40;;;;;;;23.11;100.00;97149.41;5038077;28;20496;-76
2023/08/27 00:04:50;;;;;;;12.45;8.82;;;;;;;23.07;100.00;97140.72;5035113;28;20021;-75
2023/08/27 00:07:16;;;;;;;15.77;9.60;;;;;;;23.04;100.00;97143.81;5048130;28;20078;-75
2023/08/27 00:09:41;;;;;;;18.10;9.60;;;;;;;23.00;100.00;97145.25;5050086;28;20520;-76
2023/08/27 00:12:07;;;;;;;14.25;9.00;;;;;;;22.99;100.00;97149.00;5040109;28;20104;-76
2023/08/27 00:14:32;;;;;;;14.73;9.82;;;;;;;23.09;100.00;97141.41;5027752;28;20453;-76
2023/08/27 00:16:58;;;;;;;15.20;10.02;;;;;;;23.12;100.00;97149.22;5043548;28;20107;-76
2023/08/27 00:19:23;;;;;;;14.63;9.10;;;;;;;23.08;100.00;97150.63;5047075;28;20033;-76
2023/08/27 00:21:51;;;;;;;16.80;11.15;;;;;;;23.06;100.00;97141.78;5042092;28;20492;-75
2023/08/27 00:24:17;;;;;;;17.60;11.77;;;;;;;23.10;100.00;97143.09;5043338;28;20400;-75
2023/08/27 00:26:42;;;;;;;19.45;12.18;;;;;;;22.97;100.00;97136.56;5036575;28;20026;-75
2023/08/27 00:29:08;;;;;;;22.83;12.68;;;;;;;22.84;100.00;97126.25;5037410;28;20057;-76
2023/08/27 00:31:33;;;;;;;19.25;11.10;;;;;;;22.78;100.00;97126.13;5031108;28;20045;-76
2023/08/27 00:33:59;;;;;;;16.30;10.15;;;;;;;22.77;100.00;97129.88;5045439;28;20029;-77
2023/08/27 00:36:24;;;;;;;23.15;10.50;;;;;;;22.77;100.00;97128.00;5037520;28;20060;-76
2023/08/27 00:38:50;;;;;;;20.52;10.93;;;;;;;22.76;100.00;97126.31;5033046;28;20093;-76
2023/08/27 00:41:15;;;;;;;16.73;10.27;;;;;;;22.57;100.00;97129.47;5039988;28;20089;-76
2023/08/27 00:43:41;;;;;;;18.63;10.88;;;;;;;22.58;100.00;97131.16;5053726;28;20423;-76
2023/08/27 00:46:08;;;;;;;24.48;10.70;;;;;;;22.51;100.00;97130.19;5039738;28;20056;-76
2023/08/27 00:48:34;;;;;;;13.82;9.95;;;;;;;22.43;100.00;97138.41;5034637;28;20449;-76
2023/08/27 00:51:00;;;;;;;19.52;10.32;;;;;;;22.36;100.00;97126.53;5025066;28;20027;-75
2023/08/27 00:53:26;;;;;;;17.25;10.88;;;;;;;22.27;100.00;97138.50;5037757;27;20048;-75
2023/08/27 00:55:52;;;;;;;12.63;9.52;;;;;;;22.23;100.00;97142.59;5039635;28;20460;-75
2023/08/27 00:58:17;;;;;;;12.13;9.55;;;;;;;22.13;100.00;97132.78;5040034;28;20025;-76
2023/08/27 01:00:43;;;;;;;21.10;11.35;;;;;;;22.14;100.00;97123.59;5036261;28;20024;-76
2023/08/27 01:03:08;;;;;;;21.17;11.60;;;;;;;22.12;100.00;97131.06;5039897;28;20031;-76
2023/08/27 01:05:34;;;;;;;14.88;10.48;;;;;;;21.96;100.00;97135.75;5037584;28;20033;-75
2023/08/27 01:08:09;;;;;;;16.70;10.07;;;;;;;21.95;100.00;97124.00;5035614;28;20495;-75
2023/08/27 01:10:39;;;;;;;18.92;10.93;;;;;;;21.96;100.00;97133.88;5031865;28;20029;-75
2023/08/27 01:13:08;;;;;;;21.60;11.15;;;;;;;21.93;100.00;97128.75;5016593;28;20760;-76
2023/08/27 01:15:34;;;;;;;19.92;10.02;;;;;;;21.94;100.00;97119.56;5031480;28;20032;-78
2023/08/27 01:18:00;;;;;;;16.65;10.57;;;;;;;21.89;100.00;97124.69;5036405;28;20025;-76
2023/08/27 01:20:26;;;;;;;15.18;10.60;;;;;;;21.99;100.00;97122.63;5042079;28;20025;-76
2023/08/27 01:22:52;;;;;;;15.43;10.00;;;;;;;21.94;100.00;97127.72;5038393;28;20032;-76
2023/08/27 01:25:20;;;;;;;18.67;10.10;;;;;;;21.95;100.00;97129.44;5027762;28;20357;-75
2023/08/27 01:27:53;;;;;;;13.57;9.80;;;;;;;21.82;100.00;97128.25;5021769;28;20056;-75
2023/08/27 01:30:32;;;;;;;17.55;10.27;;;;;;;21.92;100.00;97134.38;5025109;28;20037;-75
2023/08/27 01:33:09;;;;;;;17.00;10.50;;;;;;;21.85;100.00;97127.91;5017178;28;20048;-75
2023/08/27 01:35:36;;;;;;;21.33;11.07;;;;;;;21.87;100.00;97125.88;5030080;28;20029;-74
2023/08/27 01:38:02;;;;;;;16.75;9.95;;;;;;;21.79;100.00;97129.47;5034162;28;20033;-76
2023/08/27 01:40:28;;;;;;;16.85;10.75;;;;;;;21.70;100.00;97132.38;5034100;28;20501;-77
2023/08/27 01:42:53;;;;;;;14.65;10.48;;;;;;;21.65;100.00;97121.16;5019039;28;20044;-76
2023/08/27 01:45:19;;;;;;;15.82;9.50;;;;;;;21.67;100.00;97130.84;5037114;28;20064;-76
2023/08/27 01:47:44;;;;;;;18.10;9.65;;;;;;;21.67;100.00;97125.41;5031098;28;20090;-75
2023/08/27 01:50:10;;;;;;;17.35;9.65;;;;;;;21.70;100.00;97133.22;5044167;28;20432;-75
2023/08/27 01:52:36;;;;;;;17.05;9.63;;;;;;;21.67;100.00;97135.44;5042214;28;20036;-76
2023/08/27 01:55:03;;;;;;;12.90;9.48;;;;;;;21.64;100.00;97123.03;5036041;28;20036;-76
2023/08/27 01:57:28;;;;;;;17.13;9.85;;;;;;;21.64;100.00;97117.59;5034225;28;20052;-76
2023/08/27 01:59:54;;;;;;;14.80;9.25;;;;;;;21.59;100.00;97130.88;5040604;28;20033;-75
2023/08/27 02:02:19;;;;;;;15.77;9.80;;;;;;;21.63;100.00;97126.78;5034743;28;20029;-76
2023/08/27 02:04:45;;;;;;;17.52;9.98;;;;;;;21.59;100.00;97117.28;5043701;28;20029;-77
2023/08/27 02:07:11;;;;;;;19.23;9.85;;;;;;;21.63;100.00;97122.19;5032625;28;20112;-76
2023/08/27 02:09:36;;;;;;;15.50;8.80;;;;;;;21.58;100.00;97118.28;5038901;28;20018;-75
2023/08/27 02:12:04;;;;;;;14.18;8.93;;;;;;;21.58;100.00;97121.88;5027817;28;20127;-76
2023/08/27 02:14:29;;;;;;;16.02;9.98;;;;;;;21.48;100.00;97121.19;5033240;28;20033;-76
2023/08/27 02:16:55;;;;;;;15.00;10.88;;;;;;;21.32;100.00;97104.88;5033935;28;20028;-77
2023/08/27 02:19:21;;;;;;;17.60;10.65;;;;;;;21.34;100.00;97123.78;5030437;27;20041;-76
2023/08/27 02:21:46;;;;;;;15.25;9.98;;;;;;;21.26;100.00;97115.59;5015487;28;20029;-76
2023/08/27 02:24:12;;;;;;;20.58;11.18;;;;;;;21.30;100.00;97123.28;5020528;28;20033;-75
2023/08/27 02:26:37;;;;;;;20.00;10.70;;;;;;;21.32;100.00;97114.94;5037702;28;20032;-76
2023/08/27 02:29:03;;;;;;;16.42;10.40;;;;;;;21.18;100.00;97118.34;5021399;28;20086;-77
2023/08/27 02:31:28;;;;;;;27.30;10.55;;;;;;;21.18;100.00;97116.47;5036356;28;20083;-75
2023/08/27 02:33:54;;;;;;;21.08;11.48;;;;;;;21.15;100.00;97119.53;5038367;28;20023;-76
2023/08/27 02:36:19;;;;;;;14.70;10.02;;;;;;;21.16;100.00;97121.25;5036716;28;20407;-75
2023/08/27 02:38:45;;;;;;;16.15;10.90;;;;;;;21.20;100.00;97122.59;5042405;28;20017;-75
2023/08/27 02:41:10;;;;;;;20.10;10.20;;;;;;;21.18;100.00;97112.91;5019714;28;20536;-76
2023/08/27 02:43:36;;;;;;;18.67;10.88;;;;;;;21.13;100.00;97110.72;5008215;28;20033;-76
2023/08/27 02:46:02;;;;;;;15.90;10.48;;;;;;;21.07;100.00;97120.34;5035624;28;20013;-76
2023/08/27 02:48:27;;;;;;;16.08;10.52;;;;;;;21.01;100.00;97112.88;5029651;28;20026;-76
2023/08/27 02:50:53;;;;;;;16.40;10.63;;;;;;;20.92;100.00;97119.34;5040664;28;20472;-76
2023/08/27 02:53:18;;;;;;;18.10;10.80;;;;;;;20.93;100.00;97120.19;5032928;28;20124;-76
2023/08/27 02:55:44;;;;;;;17.85;10.70;;;;;;;20.97;100.00;97122.41;5035793;28;20036;-76
2023/08/27 02:58:10;;;;;;;19.65;11.15;;;;;;;21.01;100.00;97118.31;5038137;28;20488;-77
2023/08/27 03:00:39;;;;;;;18.45;10.32;;;;;;;21.12;100.00;97128.06;5030222;28;20089;-77
2023/08/27 03:03:05;;;;;;;17.70;10.88;;;;;;;20.98;100.00;97117.81;5026786;28;20037;-76
2023/08/27 03:05:30;;;;;;;18.83;10.63;;;;;;;20.94;100.00;97121.91;5038302;28;20036;-76
2023/08/27 03:07:56;;;;;;;15.48;10.43;;;;;;;21.00;100.00;97123.94;5028914;28;20473;-76
2023/08/27 03:10:22;;;;;;;19.10;11.13;;;;;;;20.86;100.00;97128.16;5038893;28;20025;-75
2023/08/27 03:12:48;;;;;;;15.88;10.63;;;;;;;20.85;100.00;97134.66;5041740;28;20028;-77
2023/08/27 03:15:13;;;;;;;17.38;11.05;;;;;;;20.79;100.00;97140.75;5017037;28;20121;-77
2023/08/27 03:17:39;;;;;;;21.58;11.40;;;;;;;20.82;100.00;97129.56;5033232;28;20028;-76
2023/08/27 03:20:05;;;;;;;15.07;10.40;;;;;;;20.78;100.00;97127.31;5044550;28;20364;-75
2023/08/27 03:22:30;;;;;;;13.40;10.40;;;;;;;20.76;100.00;97126.66;5017990;28;20065;-75
2023/08/27 03:24:56;;;;;;;22.48;10.55;;;;;;;20.79;100.00;97132.59;5036588;27;20053;-76
2023/08/27 03:27:22;;;;;;;18.20;10.85;;;;;;;20.68;100.00;97132.06;5011255;28;20061;-75
2023/08/27 03:29:48;;;;;;;17.42;10.50;;;;;;;20.69;100.00;97126.47;5037967;28;20025;-76
2023/08/27 03:32:15;;;;;;;17.05;10.48;;;;;;;20.65;100.00;97132.41;5029755;28;20034;-76
2023/08/27 03:34:40;;;;;;;15.13;10.52;;;;;;;20.65;100.00;97132.41;5027439;28;20469;-76
2023/08/27 03:37:06;;;;;;;16.63;10.93;;;;;;;20.64;100.00;97128.81;5036755;28;20021;-76
2023/08/27 03:39:31;;;;;;;17.67;9.77;;;;;;;20.63;100.00;97139.88;5036008;28;20025;-76
2023/08/27 03:41:57;;;;;;;20.65;10.70;;;;;;;20.67;100.00;97135.81;5035607;28;20033;-75
2023/08/27 03:44:24;;;;;;;21.55;10.60;;;;;;;20.70;100.00;97130.91;5033901;28;20025;-75
2023/08/27 03:46:49;;;;;;;23.55;10.70;;;;;;;20.71;100.00;97131.72;5035083;28;20515;-75
2023/08/27 03:49:15;;;;;;;19.77;10.30;;;;;;;20.62;100.00;97136.31;5037948;28;20063;-76
2023/08/27 03:51:40;;;;;;;16.95;9.75;;;;;;;20.71;100.00;97140.72;5030120;28;20483;-77
2023/08/27 03:54:07;;;;;;;18.45;10.63;;;;;;;20.76;100.00;97146.53;5042249;28;20021;-76
2023/08/27 03:56:32;;;;;;;26.00;10.18;;;;;;;20.79;100.00;97146.19;5035958;28;20043;-76
2023/08/27 03:58:58;;;;;;;16.48;9.95;;;;;;;20.86;100.00;97151.78;5034229;28;20393;-75
2023/08/27 04:01:23;;;;;;;15.68;10.35;;;;;;;20.95;100.00;97154.34;5043076;28;20127;-77
2023/08/27 04:03:50;;;;;;;19.48;9.70;;;;;;;20.98;100.00;97158.59;5036646;28;20030;-76
2023/08/27 04:06:15;;;;;;;18.45;10.02;;;;;;;20.99;100.00;97158.44;5027830;28;20029;-76
2023/08/27 04:08:41;;;;;;;23.75;11.55;;;;;;;20.96;100.00;97164.22;5038973;28;20033;-76
2023/08/27 04:11:06;;;;;;;23.05;11.32;;;;;;;20.83;100.00;97157.56;5040759;28;20057;-75
2023/08/27 04:13:32;;;;;;;18.95;10.65;;;;;;;20.86;100.00;97158.09;5036120;28;20412;-76
2023/08/27 04:16:05;;;;;;;18.75;10.35;;;;;;;20.89;100.00;97159.59;5041208;28;20499;-77
2023/08/27 04:18:33;;;;;;;21.10;10.32;;;;;;;20.89;100.00;97167.75;5037964;28;20404;-76
2023/08/27 04:20:58;;;;;;;20.48;10.45;;;;;;;20.84;100.00;97159.28;5036850;28;20541;-76
2023/08/27 04:23:24;;;;;;;16.90;10.38;;;;;;;20.90;100.00;97174.91;5040765;28;20037;-76
2023/08/27 04:25:49;;;;;;;25.27;10.63;;;;;;;20.94;100.00;97171.72;5037988;28;20577;-77
2023/08/27 04:28:15;;;;;;;18.23;10.55;;;;;;;21.07;100.00;97168.50;5038072;28;20029;-76
2023/08/27 04:30:41;;;;;;;17.38;10.43;;;;;;;21.18;100.00;97183.63;5040727;28;20082;-77
2023/08/27 04:33:06;;;;;;;17.00;9.80;;;;;;;21.26;100.00;97175.47;5039040;28;20052;-77
2023/08/27 04:35:32;;;;;;;15.30;9.80;;;;;;;21.46;100.00;97174.09;5031248;28;20029;-76
2023/08/27 04:37:57;;;;;;;20.67;10.23;;;;;;;21.53;100.00;97177.84;5041601;28;20021;-76
2023/08/27 04:40:23;;;;;;;25.60;10.13;;;;;;;21.49;100.00;97182.78;5028549;28;20085;-75
2023/08/27 04:42:49;;;;;;;19.85;10.38;;;;;;;21.59;100.00;97183.44;5039074;28;20026;-76
2023/08/27 04:45:14;;;;;;;23.63;10.25;;;;;;;21.73;100.00;97181.03;5029349;28;20457;-77
2023/08/27 04:47:41;;;;;;;20.20;10.60;;;;;;;21.85;100.00;97188.66;5024715;28;20033;-75
2023/08/27 04:50:07;;;;;;;17.42;10.52;;;;;;;21.92;100.00;97183.41;5047838;28;20117;-76
2023/08/27 04:52:36;;;;;;;20.48;11.07;;;;;;;22.04;100.00;97188.31;5031319;28;20499;-76
2023/08/27 04:55:06;;;;;;;18.05;10.57;;;;;;;22.23;100.00;97197.09;5047862;28;20440;-76
2023/08/27 04:57:33;;;;;;;22.85;10.80;;;;;;;22.29;100.00;97186.34;5023179;28;20021;-75
2023/08/27 04:59:58;;;;;;;22.17;11.30;;;;;;;22.40;100.00;97193.28;5030864;28;20021;-76
2023/08/27 05:02:24;;;;;;;24.27;10.73;;;;;;;22.59;100.00;97199.16;5030773;28;20439;-77
2023/08/27 05:04:50;;;;;;;16.67;10.20;;;;;;;22.58;100.00;97193.88;5047843;28;20017;-75
2023/08/27 05:09:59;;;;;;;18.88;10.30;;;;;;;22.88;100.00;97190.34;5048998;28;20081;-77
2023/08/27 05:12:25;;;;;;;15.45;10.48;;;;;;;22.99;100.00;97183.59;5028672;28;20029;-76
2023/08/27 05:14:50;;;;;;;23.17;10.30;;;;;;;23.07;100.00;97189.84;5029738;28;20385;-76
2023/08/27 05:17:16;;;;;;;21.95;10.68;;;;;;;23.17;100.00;97175.97;5039719;28;20025;-75
2023/08/27 05:19:42;;;;;;;17.17;10.43;;;;;;;23.36;100.00;97194.59;5041359;28;20028;-79
2023/08/27 05:22:07;;;;;;;23.92;12.50;;;;;;;23.36;100.00;97193.72;5048251;28;20036;-75
2023/08/27 05:24:33;;;;;;;42.72;14.00;;;;;;;23.56;100.00;97194.97;5028775;28;21932;-74
2023/08/27 05:26:58;;;;;;;54.92;14.82;;;;;;;23.70;100.00;97195.00;5046926;28;20037;-76
2023/08/27 05:29:24;;;;;;;27.58;12.23;;;;;;;23.91;100.00;97193.41;5047153;28;20033;-74
2023/08/27 05:31:49;;;;;;;20.83;10.88;;;;;;;23.98;100.00;97188.91;5034588;28;20516;-75
2023/08/27 05:34:15;;;;;;;22.15;11.93;;;;;;;24.07;100.00;97196.84;5031955;28;20057;-77
2023/08/27 05:36:40;;;;;;;46.28;11.63;;;;;;;24.42;100.00;97199.88;5034703;28;20081;-75
2023/08/27 05:39:06;;;;;;;20.30;10.70;;;;;;;25.45;100.00;97193.09;5036643;28;20021;-77
2023/08/27 05:41:32;;;;;;;18.75;10.80;;;;;;;26.74;100.00;97196.16;5038216;28;20492;-77
2023/08/27 05:43:57;;;;;;;23.55;10.55;;;;;;;27.89;100.00;97182.25;5035021;28;20516;-77
2023/08/27 05:46:23;;;;;;;27.15;10.35;;;;;;;28.95;100.00;97179.06;5047792;28;20107;-76
2023/08/27 05:48:49;;;;;;;26.67;10.32;;;;;;;29.89;98.36;97175.53;5041099;28;20027;-78
2023/08/27 05:51:14;;;;;;;42.00;11.20;;;;;;;30.91;89.95;97172.09;5043906;28;20075;-80
2023/08/27 05:53:40;;;;;;;29.95;10.43;;;;;;;31.91;81.70;97162.13;5018619;28;20049;-75
2023/08/27 05:56:05;;;;;;;77.70;10.88;;;;;;;32.71;75.15;97158.56;5030982;28;20515;-78
2023/08/27 05:58:31;;;;;;;14.80;9.35;;;;;;;32.99;71.43;97166.06;5022078;28;20029;-76
2023/08/27 06:00:56;;;;;;;22.90;9.48;;;;;;;32.92;68.07;97158.97;5040932;28;20800;-77
2023/08/27 06:03:23;;;;;;;23.20;9.80;;;;;;;32.02;73.97;97169.63;5034366;28;20033;-76
2023/08/27 06:05:48;;;;;;;20.42;9.07;;;;;;;32.63;70.57;97166.41;5036472;28;20086;-76
2023/08/27 06:08:15;;;;;;;33.58;9.60;;;;;;;33.66;64.94;97161.59;5032169;28;20029;-79
2023/08/27 06:10:40;;;;;;;18.38;9.88;;;;;;;33.77;63.49;97152.38;5038163;28;20043;-82
2023/08/27 06:13:07;;;;;;;16.67;10.10;;;;;;;34.54;59.49;97151.66;5021085;28;20104;-83
2023/08/27 06:15:34;;;;;;;22.58;10.18;;;;;;;34.93;56.87;97149.69;5016818;28;20511;-77
2023/08/27 06:18:03;;;;;;;17.30;8.25;;;;;;;35.38;55.16;97139.97;5035288;28;20089;-77
2023/08/27 06:20:29;;;;;;;19.23;9.32;;;;;;;35.15;54.35;97139.44;5037403;28;20472;-76
2023/08/27 06:22:55;;;;;;;29.08;14.45;;;;;;;34.62;56.77;97149.31;5032835;28;20377;-77
2023/08/27 06:25:22;;;;;;;19.90;12.48;;;;;;;33.84;59.75;97138.31;5043804;28;20085;-76
2023/08/27 06:27:48;;;;;;;18.80;9.48;;;;;;;34.01;60.04;97149.44;5019058;28;20025;-76
2023/08/27 06:30:13;;;;;;;31.52;11.40;;;;;;;34.90;56.64;97141.88;5035707;28;20077;-75
2023/08/27 06:32:39;;;;;;;28.23;12.77;;;;;;;36.17;51.78;97131.00;5015231;28;20500;-81
2023/08/27 06:35:05;;;;;;;22.33;13.43;;;;;;;35.33;51.26;97130.72;5035358;28;20043;-85
2023/08/27 06:37:30;;;;;;;38.10;19.42;;;;;;;35.23;52.70;97139.81;5035091;28;20025;-82
2023/08/27 06:39:55;;;;;;;15.38;9.20;;;;;;;35.22;50.64;97132.59;5033431;28;20425;-76
2023/08/27 06:42:21;;;;;;;12.68;8.07;;;;;;;35.98;48.48;97124.97;5025908;28;20044;-76
2023/08/27 06:44:47;;;;;;;18.38;8.82;;;;;;;35.80;48.66;97125.38;5016313;28;20064;-75
2023/08/27 06:47:12;;;;;;;12.43;8.00;;;;;;;36.01;47.66;97123.59;5036663;28;20086;-75
2023/08/27 06:49:38;;;;;;;14.85;7.22;;;;;;;36.42;45.87;97120.84;5017377;28;20026;-75
2023/08/27 06:52:04;;;;;;;15.57;7.57;;;;;;;36.14;45.45;97124.03;5042970;28;20119;-76
2023/08/27 06:54:29;;;;;;;23.35;7.55;;;;;;;37.00;44.85;97126.50;5060531;28;20037;-75
2023/08/27 06:56:55;;;;;;;132.20;13.40;;;;;;;38.19;42.33;97120.56;5043074;28;20021;-75
2023/08/27 06:59:20;;;;;;;7.95;7.15;;;;;;;38.84;40.40;97125.22;5026733;28;20021;-75
2023/08/27 07:01:46;;;;;;;8.95;7.10;;;;;;;39.60;39.28;97120.09;5043151;28;20025;-73
2023/08/27 07:04:13;;;;;;;12.55;6.40;;;;;;;39.80;37.59;97127.56;5042983;28;20036;-74
2023/08/27 07:06:38;;;;;;;12.93;6.75;;;;;;;40.05;37.27;97116.16;5043251;28;20027;-74
2023/08/27 07:09:05;;;;;;;11.52;7.00;;;;;;;40.41;36.72;97116.66;5043153;28;20025;-75
2023/08/27 07:11:31;;;;;;;25.17;7.88;;;;;;;39.92;38.11;97123.25;5043466;28;20025;-75
2023/08/27 07:13:57;;;;;;;10.82;6.72;;;;;;;40.16;37.65;97112.13;5036354;28;20484;-74
2023/08/27 07:16:22;;;;;;;12.23;8.43;;;;;;;39.28;38.40;97125.34;5024249;28;20099;-74
2023/08/27 07:18:48;;;;;;;13.88;7.43;;;;;;;37.78;40.00;97117.75;5024222;28;20143;-75
2023/08/27 07:21:13;;;;;;;12.63;7.57;;;;;;;38.06;39.86;97115.53;5022909;28;20078;-74
2023/08/27 07:23:39;;;;;;;10.00;6.65;;;;;;;38.49;38.96;97113.00;5025547;28;20021;-73
2023/08/27 07:26:04;;;;;;;12.10;6.80;;;;;;;39.22;37.86;97118.91;5009819;28;20029;-75
2023/08/27 07:28:30;;;;;;;22.05;7.80;;;;;;;39.94;37.20;97112.59;5027672;28;20037;-74
2023/08/27 07:30:56;;;;;;;13.27;6.95;;;;;;;37.32;39.48;97107.59;5026197;28;20017;-74
2023/08/27 07:33:22;;;;;;;11.48;6.70;;;;;;;37.78;39.25;97125.28;5025827;28;20059;-75
2023/08/27 07:35:47;;;;;;;8.77;7.47;;;;;;;38.99;38.17;97117.63;5010024;28;20102;-74
2023/08/27 07:38:14;;;;;;;12.68;7.57;;;;;;;39.40;36.83;97117.44;5009477;28;20041;-75
2023/08/27 07:40:40;;;;;;;12.35;6.60;;;;;;;37.43;38.22;97109.31;5009899;28;20033;-74
2023/08/27 07:43:06;;;;;;;18.83;7.15;;;;;;;38.75;37.04;97122.16;5026045;28;20025;-75
2023/08/27 07:45:32;;;;;;;26.08;7.32;;;;;;;40.12;35.25;97107.44;5025967;28;20112;-74
2023/08/27 07:47:58;;;;;;;211.43;20.45;;;;;;;40.85;34.43;97106.09;5025788;28;20481;-74
2023/08/27 07:50:25;;;;;;;11.73;6.40;;;;;;;39.99;35.21;97098.50;5015053;28;20033;-74
2023/08/27 07:52:50;;;;;;;10.10;6.10;;;;;;;39.81;35.47;97101.22;5026247;28;20085;-74
2023/08/27 07:55:16;;;;;;;9.52;6.35;;;;;;;40.86;34.66;97095.69;5025878;28;20029;-75
2023/08/27 07:57:41;;;;;;;15.65;6.20;;;;;;;41.86;33.37;97092.66;5026416;28;20078;-75
2023/08/27 08:00:07;;;;;;;14.80;6.40;;;;;;;41.58;33.15;97080.44;5027755;28;20380;-74
2023/08/27 08:02:33;;;;;;;10.88;5.75;;;;;;;41.13;33.12;97085.53;5013285;28;20043;-74
2023/08/27 08:04:58;;;;;;;14.27;7.18;;;;;;;41.46;32.75;97082.84;5045903;28;20407;-75
2023/08/27 08:07:25;;;;;;;67.18;12.65;;;;;;;42.53;31.91;97082.75;5027374;28;20053;-74
2023/08/27 08:09:51;;;;;;;28.35;8.40;;;;;;;42.95;31.67;97075.97;5032215;28;20029;-74
2023/08/27 08:12:16;;;;;;;14.15;5.93;;;;;;;42.54;30.66;97068.38;5037338;28;20124;-75
2023/08/27 08:14:42;;;;;;;10.82;5.50;;;;;;;42.22;31.04;97070.38;5045836;28;20028;-74
2023/08/27 08:17:08;;;;;;;6.28;5.50;;;;;;;41.71;31.91;97062.78;5045440;28;20040;-74
2023/08/27 08:19:34;;;;;;;9.10;5.38;;;;;;;42.79;30.30;97058.59;5045350;28;20055;-74
2023/08/27 08:22:00;;;;;;;20.55;5.85;;;;;;;42.81;30.24;97059.13;5045543;28;20035;-74
2023/08/27 08:24:26;;;;;;;6.97;5.65;;;;;;;43.08;30.38;97061.94;5045114;28;20100;-77
2023/08/27 08:26:52;;;;;;;12.48;5.95;;;;;;;43.16;30.10;97060.38;5046985;28;20033;-73
2023/08/27 08:29:20;;;;;;;12.23;6.68;;;;;;;42.49;30.18;97045.94;5047164;28;20108;-75
2023/08/27 08:31:46;;;;;;;16.40;6.90;;;;;;;43.25;28.79;97046.38;5045151;28;20060;-74
2023/08/27 08:34:11;;;;;;;8.95;7.00;;;;;;;44.14;28.57;97050.13;5044964;28;20089;-75
2023/08/27 08:36:37;;;;;;;5.90;5.15;;;;;;;43.91;28.35;97035.19;5045075;28;20036;-76
2023/08/27 08:39:03;;;;;;;22.58;5.70;;;;;;;44.31;27.77;97036.13;5045563;28;20491;-76
2023/08/27 08:41:28;;;;;;;7.78;5.25;;;;;;;43.43;28.53;97034.13;5045424;28;20029;-76
2023/08/27 08:44:02;;;;;;;10.05;5.55;;;;;;;43.79;28.26;97029.31;5028632;28;20029;-76
2023/08/27 08:46:31;;;;;;;6.63;5.53;;;;;;;44.41;28.47;97037.84;5027860;28;20032;-76
2023/08/27 08:48:57;;;;;;;9.32;5.65;;;;;;;43.09;28.92;97032.63;5028948;28;20067;-75
2023/08/27 08:51:26;;;;;;;7.32;5.50;;;;;;;41.86;30.00;97026.03;5045102;28;20033;-74
2023/08/27 08:53:53;;;;;;;30.95;6.95;;;;;;;42.55;29.72;97021.34;5044864;28;20029;-75
2023/08/27 08:56:27;;;;;;;6.78;4.90;;;;;;;43.73;29.23;97019.28;5044958;28;20025;-74
2023/08/27 08:58:56;;;;;;;7.97;5.45;;;;;;;44.41;28.81;97018.06;5028170;28;20116;-74
2023/08/27 09:01:22;;;;;;;7.97;4.90;;;;;;;43.77;28.32;97017.53;5045175;28;20060;-74
2023/08/27 09:03:48;;;;;;;7.38;4.88;;;;;;;45.37;27.03;97015.25;5044976;28;20127;-75
2023/08/27 09:06:18;;;;;;;23.45;5.95;;;;;;;46.23;26.32;97021.69;5028571;28;20124;-74
2023/08/27 09:08:44;;;;;;;7.17;5.40;;;;;;;47.31;25.22;97013.38;5044648;28;20120;-74
2023/08/27 09:11:10;;;;;;;9.18;5.03;;;;;;;47.18;25.43;97010.81;5044911;28;20033;-74
2023/08/27 09:13:36;;;;;;;5.55;5.05;;;;;;;47.86;24.58;97004.59;5019624;28;20033;-74
2023/08/27 09:16:02;;;;;;;11.18;4.95;;;;;;;48.35;24.16;97005.59;5008563;28;20468;-75
2023/08/27 09:18:27;;;;;;;7.18;5.43;;;;;;;47.04;25.04;97004.56;5008446;28;20029;-75
2023/08/27 09:20:53;;;;;;;6.78;4.93;;;;;;;46.79;25.25;96998.66;5008211;28;20432;-75
2023/08/27 09:23:18;;;;;;;7.93;5.60;;;;;;;47.11;25.06;97005.66;5026439;28;20033;-74
2023/08/27 09:25:44;;;;;;;12.18;5.50;;;;;;;47.71;24.59;97005.22;5025453;28;20045;-75
2023/08/27 09:28:11;;;;;;;7.78;4.88;;;;;;;48.52;24.01;96995.22;5045981;28;20101;-74
2023/08/27 09:30:36;;;;;;;12.27;5.90;;;;;;;47.37;24.66;96994.16;5044459;28;20065;-75
2023/08/27 09:33:03;;;;;;;10.60;5.85;;;;;;;47.23;25.12;96987.91;5027430;28;20619;-76
2023/08/27 09:35:40;;;;;;;10.27;5.78;;;;;;;47.84;24.50;96994.75;5044521;28;20040;-75
2023/08/27 09:38:06;;;;;;;8.13;5.88;;;;;;;47.89;24.12;96991.72;5044270;28;20035;-74
2023/08/27 09:40:32;;;;;;;8.70;5.13;;;;;;;47.83;24.47;96987.41;5044278;28;20493;-75
2023/08/27 09:43:06;;;;;;;12.02;5.65;;;;;;;48.31;23.92;96979.09;5044008;28;20028;-74
2023/08/27 09:45:33;;;;;;;7.32;5.05;;;;;;;48.48;23.63;96977.22;5044008;28;20515;-76
2023/08/27 09:47:58;;;;;;;13.57;5.20;;;;;;;49.01;23.49;96968.47;5026998;28;20029;-76
2023/08/27 09:50:24;;;;;;;8.80;4.80;;;;;;;49.20;23.30;96974.38;5044776;28;20412;-76
2023/08/27 09:52:50;;;;;;;8.10;5.47;;;;;;;47.42;23.92;96956.25;5043986;28;20112;-74
2023/08/27 09:55:16;;;;;;;12.88;5.20;;;;;;;47.21;23.99;96970.44;5034421;28;20030;-74
2023/08/27 09:57:49;;;;;;;5.93;4.55;;;;;;;46.73;24.65;96956.72;5026863;28;20133;-74
2023/08/27 10:00:15;;;;;;;7.55;4.65;;;;;;;47.69;23.58;96952.84;5009682;28;20510;-75
2023/08/27 10:02:43;;;;;;;10.85;5.38;;;;;;;48.26;23.50;96950.94;5010598;28;20116;-75
2023/08/27 10:05:09;;;;;;;10.48;4.85;;;;;;;48.22;23.44;96949.09;5010295;28;20543;-74
2023/08/27 10:07:35;;;;;;;7.68;4.55;;;;;;;48.34;23.18;96940.63;5010264;28;20053;-74
2023/08/27 10:10:04;;;;;;;21.83;5.57;;;;;;;47.95;23.31;96939.25;5011925;28;20061;-74
2023/08/27 10:12:30;;;;;;;9.15;4.82;;;;;;;48.27;23.38;96937.56;5030077;28;20028;-73
2023/08/27 10:14:56;;;;;;;8.75;5.57;;;;;;;48.78;22.78;96934.03;5047279;28;20088;-73
2023/08/27 10:17:23;;;;;;;14.32;4.80;;;;;;;48.54;22.58;96927.50;5047758;28;20109;-73
2023/08/27 10:19:48;;;;;;;14.95;4.88;;;;;;;49.45;22.50;96935.34;5030334;28;20082;-74
2023/08/27 10:22:14;;;;;;;13.57;5.07;;;;;;;48.68;22.45;96928.81;5046329;28;20028;-73
2023/08/27 10:24:40;;;;;;;15.90;5.00;;;;;;;48.04;22.80;96920.09;5046405;28;20025;-74
2023/08/27 10:27:06;;;;;;;9.57;5.38;;;;;;;48.30;23.53;96928.34;5046016;28;20120;-74
2023/08/27 10:29:33;;;;;;;15.63;5.18;;;;;;;48.74;22.14;96912.34;5046512;28;20024;-74
2023/08/27 10:31:59;;;;;;;9.35;4.40;;;;;;;48.72;22.31;96911.91;5046291;28;20047;-75
2023/08/27 10:34:29;;;;;;;12.38;6.07;;;;;;;48.98;21.31;96912.34;5046281;28;20033;-75
2023/08/27 10:37:05;;;;;;;7.63;5.05;;;;;;;47.87;21.90;96903.28;5030302;28;20044;-74
2023/08/27 10:39:32;;;;;;;16.48;5.07;;;;;;;48.12;21.77;96904.97;5046276;28;20020;-74
2023/08/27 10:41:57;;;;;;;7.05;4.28;;;;;;;48.02;22.05;96902.59;5046181;28;20096;-75
2023/08/27 10:44:22;;;;;;;8.10;4.18;;;;;;;47.40;22.01;96904.72;5046201;28;20123;-75
2023/08/27 10:47:07;;;;;;;8.48;4.70;;;;;;;48.08;21.94;96889.84;5046226;28;20025;-74
2023/08/27 10:49:39;;;;;;;10.40;3.67;;;;;;;49.24;20.78;96884.31;5020767;28;20021;-74
2023/08/27 10:52:19;;;;;;;8.20;3.90;;;;;;;49.64;21.12;96892.00;5026365;28;20096;-74
2023/08/27 10:54:46;;;;;;;6.45;3.85;;;;;;;49.59;20.49;96884.56;5009940;28;20049;-73
2023/08/27 10:57:17;;;;;;;8.73;4.22;;;;;;;49.11;20.33;96882.69;5009681;28;20482;-75
2023/08/27 10:59:42;;;;;;;15.95;3.67;;;;;;;50.22;19.06;96879.78;5013099;28;20040;-74
2023/08/27 11:02:08;;;;;;;6.38;3.45;;;;;;;50.80;19.10;96880.84;5013049;28;20006;-74
2023/08/27 11:04:44;;;;;;;21.55;4.40;;;;;;;51.44;18.59;96874.56;5029571;28;20032;-74
2023/08/27 11:07:22;;;;;;;9.30;3.72;;;;;;;50.01;19.18;96864.19;5029679;28;20022;-75
2023/08/27 11:09:52;;;;;;;11.70;4.03;;;;;;;49.79;18.65;96872.13;5029878;28;20025;-74
2023/08/27 11:12:24;;;;;;;10.00;3.55;;;;;;;49.87;18.69;96873.16;5030891;28;20098;-75
2023/08/27 11:14:50;;;;;;;13.88;3.78;;;;;;;50.56;18.15;96871.69;5029393;28;20033;-74
2023/08/27 11:17:27;;;;;;;12.85;3.78;;;;;;;49.60;18.66;96865.44;5029198;28;20477;-74
2023/08/27 11:19:53;;;;;;;9.73;3.70;;;;;;;49.73;18.29;96858.53;5029598;28;20380;-74